Time;durP1;ratioP1;P1;durP2;ratioP2;P2;SDS_P1;SDS_P2;PMS_P1;PMS_P2;Temp;Humidity;BMP_temperature;BMP_pressure;BME280_temperature;BME280_humidity;BME280_pressure;Samples;Min_cycle;Max_cycle;Signal;HPM_P1;HPM_P2
2020/12/06 00:00:45;;;;;;;38.53;27.40;;;;;;;;;;2078474;28;20196;-55
2020/12/06 00:01:45;;;;;;;37.43;26.77;;;;;;;;;;2079639;28;20263;-56
2020/12/06 00:02:46;;;;;;;36.00;27.47;;;;;;;;;;2076783;28;20209;-57
2020/12/06 00:03:46;;;;;;;34.43;25.97;;;;;;;;;;2084540;28;20180;-56
2020/12/06 00:04:46;;;;;;;35.30;25.70;;;;;;;;;;2084021;28;20265;-56
2020/12/06 00:05:47;;;;;;;40.17;26.90;;;;;;;;;;2084003;28;20266;-57
2020/12/06 00:06:47;;;;;;;38.33;26.63;;;;;;;;;;2084298;28;20472;-52
2020/12/06 00:07:47;;;;;;;38.37;27.23;;;;;;;;;;2083247;28;20211;-56
2020/12/06 00:08:49;;;;;;;36.17;25.30;;;;;;;;;;2085272;28;20184;-62
2020/12/06 00:09:49;;;;;;;35.80;25.57;;;;;;;;;;2076695;28;20195;-56
2020/12/06 00:10:49;;;;;;;36.30;24.53;;;;;;;;;;2076628;28;20193;-54
2020/12/06 00:11:50;;;;;;;33.27;24.67;;;;;;;;;;2076780;28;20275;-53
2020/12/06 00:12:50;;;;;;;39.17;26.77;;;;;;;;;;2083977;28;20223;-54
2020/12/06 00:13:50;;;;;;;36.07;26.10;;;;;;;;;;2082196;28;20243;-55
2020/12/06 00:14:50;;;;;;;37.43;26.93;;;;;;;;;;2084458;28;20191;-58
2020/12/06 00:15:51;;;;;;;37.10;25.53;;;;;;;;;;2074695;28;20227;-54
2020/12/06 00:16:51;;;;;;;37.30;26.97;;;;;;;;;;2075481;28;20192;-54
2020/12/06 00:17:51;;;;;;;34.77;25.40;;;;;;;;;;2075203;28;20296;-55
2020/12/06 00:18:51;;;;;;;36.30;26.27;;;;;;;;;;2076334;28;21100;-56
2020/12/06 00:19:52;;;;;;;38.33;26.97;;;;;;;;;;2082102;28;20184;-56
2020/12/06 00:20:52;;;;;;;36.43;26.70;;;;;;;;;;2084755;28;20176;-55
2020/12/06 00:21:52;;;;;;;39.10;26.80;;;;;;;;;;2084337;28;20192;-54
2020/12/06 00:22:52;;;;;;;37.50;25.60;;;;;;;;;;2081098;28;20223;-53
2020/12/06 00:23:53;;;;;;;34.47;26.60;;;;;;;;;;2084833;28;20176;-55
2020/12/06 00:24:53;;;;;;;41.07;28.57;;;;;;;;;;2079100;28;20193;-55
2020/12/06 00:25:54;;;;;;;34.37;26.13;;;;;;;;;;2082140;28;20177;-55
2020/12/06 00:26:57;;;;;;;34.47;26.20;;;;;;;;;;2073466;28;20249;-54
2020/12/06 00:27:57;;;;;;;37.73;27.77;;;;;;;;;;2075499;28;20183;-55
2020/12/06 00:28:58;;;;;;;35.37;26.40;;;;;;;;;;2081199;28;20180;-57
2020/12/06 00:29:58;;;;;;;36.73;26.27;;;;;;;;;;2083472;28;20271;-55
2020/12/06 00:30:58;;;;;;;36.80;26.13;;;;;;;;;;2083305;28;20235;-55
2020/12/06 00:31:58;;;;;;;41.53;26.27;;;;;;;;;;2074881;28;20177;-51
2020/12/06 00:32:59;;;;;;;48.27;31.40;;;;;;;;;;2075082;28;20637;-56
2020/12/06 00:33:59;;;;;;;47.00;30.63;;;;;;;;;;2083160;28;20258;-52
2020/12/06 00:34:59;;;;;;;42.93;28.93;;;;;;;;;;2081902;28;20218;-57
2020/12/06 00:35:59;;;;;;;42.17;29.73;;;;;;;;;;2082670;28;21528;-57
2020/12/06 00:37:00;;;;;;;46.50;31.67;;;;;;;;;;2081530;28;20186;-55
2020/12/06 00:38:00;;;;;;;49.07;31.63;;;;;;;;;;2070644;28;20276;-56
2020/12/06 00:39:00;;;;;;;51.70;32.23;;;;;;;;;;2067332;28;20193;-55
2020/12/06 00:40:00;;;;;;;46.63;31.60;;;;;;;;;;2082238;28;20177;-55
2020/12/06 00:41:01;;;;;;;52.67;32.70;;;;;;;;;;2084194;28;20188;-54
2020/12/06 00:42:01;;;;;;;47.70;31.77;;;;;;;;;;2083772;28;20270;-55
2020/12/06 00:43:02;;;;;;;51.50;33.40;;;;;;;;;;2081532;28;20245;-54
2020/12/06 00:44:02;;;;;;;46.37;30.53;;;;;;;;;;2075371;28;20184;-57
2020/12/06 00:45:05;;;;;;;41.00;28.03;;;;;;;;;;2075126;28;20197;-58
2020/12/06 00:46:06;;;;;;;41.63;28.17;;;;;;;;;;2072495;28;20169;-52
2020/12/06 00:47:07;;;;;;;45.77;29.70;;;;;;;;;;2067490;28;20415;-55
2020/12/06 00:48:07;;;;;;;38.23;27.20;;;;;;;;;;2065310;28;20205;-52
2020/12/06 00:49:08;;;;;;;44.53;29.47;;;;;;;;;;2074288;28;20253;-55
2020/12/06 00:50:08;;;;;;;37.97;27.40;;;;;;;;;;2073655;28;20241;-56
2020/12/06 00:51:12;;;;;;;37.07;27.13;;;;;;;;;;2067567;28;20204;-53
2020/12/06 00:52:12;;;;;;;37.20;26.23;;;;;;;;;;2059786;28;20260;-55
2020/12/06 00:53:13;;;;;;;36.37;25.93;;;;;;;;;;2058122;28;20171;-58
2020/12/06 00:54:13;;;;;;;36.57;25.80;;;;;;;;;;2066395;28;20178;-54
2020/12/06 00:55:13;;;;;;;41.50;28.13;;;;;;;;;;2069799;28;20173;-56
2020/12/06 00:56:15;;;;;;;39.07;26.07;;;;;;;;;;2073831;28;20649;-57
2020/12/06 00:57:15;;;;;;;37.53;26.50;;;;;;;;;;2073151;28;20242;-55
2020/12/06 00:58:15;;;;;;;38.97;28.47;;;;;;;;;;2078524;28;20252;-54
2020/12/06 00:59:15;;;;;;;39.77;26.57;;;;;;;;;;2079462;28;20605;-56
2020/12/06 01:00:16;;;;;;;41.10;28.33;;;;;;;;;;2075670;28;20204;-54
2020/12/06 01:01:16;;;;;;;43.67;28.57;;;;;;;;;;2075605;28;20187;-55
2020/12/06 01:02:17;;;;;;;40.47;27.53;;;;;;;;;;2078034;28;20864;-52
2020/12/06 01:03:17;;;;;;;38.23;27.03;;;;;;;;;;2076878;28;20181;-56
2020/12/06 01:04:17;;;;;;;36.20;26.27;;;;;;;;;;2085112;28;20168;-57
2020/12/06 01:05:18;;;;;;;34.23;25.47;;;;;;;;;;2083319;28;20204;-54
2020/12/06 01:06:19;;;;;;;35.17;25.93;;;;;;;;;;2085491;28;20187;-56
2020/12/06 01:07:19;;;;;;;37.40;26.50;;;;;;;;;;2085227;28;20250;-58
2020/12/06 01:08:19;;;;;;;41.17;28.30;;;;;;;;;;2085639;28;20176;-56
2020/12/06 01:09:19;;;;;;;39.43;26.93;;;;;;;;;;2084205;28;20180;-56
2020/12/06 01:10:20;;;;;;;36.30;26.60;;;;;;;;;;2071624;28;20304;-58
2020/12/06 01:11:20;;;;;;;36.73;25.80;;;;;;;;;;2061906;28;20202;-57
2020/12/06 01:12:20;;;;;;;40.97;27.80;;;;;;;;;;2077544;28;20204;-54
2020/12/06 01:13:20;;;;;;;42.40;28.87;;;;;;;;;;2075287;28;20180;-54
2020/12/06 01:14:20;;;;;;;43.47;28.40;;;;;;;;;;2072808;28;20191;-56
2020/12/06 01:15:21;;;;;;;39.43;27.53;;;;;;;;;;2072689;28;20335;-55
2020/12/06 01:16:21;;;;;;;41.03;27.83;;;;;;;;;;2082336;28;20176;-54
2020/12/06 01:17:21;;;;;;;41.37;27.33;;;;;;;;;;2085837;28;20206;-56
2020/12/06 01:18:21;;;;;;;36.23;25.70;;;;;;;;;;2077460;28;20177;-57
2020/12/06 01:19:22;;;;;;;36.07;26.80;;;;;;;;;;2073319;28;20225;-55
2020/12/06 01:20:22;;;;;;;42.30;28.43;;;;;;;;;;2078455;28;20195;-54
2020/12/06 01:21:22;;;;;;;39.00;28.07;;;;;;;;;;2086709;28;20259;-57
2020/12/06 01:22:23;;;;;;;40.37;27.77;;;;;;;;;;2086704;28;20266;-56
2020/12/06 01:23:23;;;;;;;42.80;28.80;;;;;;;;;;2078225;28;20169;-58
2020/12/06 01:24:23;;;;;;;42.30;27.47;;;;;;;;;;2079996;28;20189;-55
2020/12/06 01:25:23;;;;;;;38.07;26.23;;;;;;;;;;2071885;28;20176;-54
2020/12/06 01:26:23;;;;;;;39.80;27.77;;;;;;;;;;2076726;28;20188;-55
2020/12/06 01:27:24;;;;;;;38.13;26.57;;;;;;;;;;2075662;28;20275;-55
2020/12/06 01:28:24;;;;;;;36.57;26.83;;;;;;;;;;2076541;28;20195;-54
2020/12/06 01:29:24;;;;;;;37.30;25.53;;;;;;;;;;2083558;28;20234;-56
2020/12/06 01:30:24;;;;;;;35.67;25.27;;;;;;;;;;2084112;28;20617;-53
2020/12/06 01:31:25;;;;;;;35.53;25.93;;;;;;;;;;2080736;28;20208;-54
2020/12/06 01:32:25;;;;;;;47.07;32.30;;;;;;;;;;2085021;28;20254;-57
2020/12/06 01:33:25;;;;;;;45.10;32.13;;;;;;;;;;2084209;28;20671;-57
2020/12/06 01:34:25;;;;;;;39.37;28.30;;;;;;;;;;2072716;28;20231;-57
2020/12/06 01:35:26;;;;;;;41.87;31.17;;;;;;;;;;2081581;28;20252;-56
2020/12/06 01:36:26;;;;;;;40.10;28.83;;;;;;;;;;2085644;28;20180;-55
2020/12/06 01:37:26;;;;;;;43.00;29.53;;;;;;;;;;2075937;28;20208;-54
2020/12/06 01:38:26;;;;;;;39.03;28.77;;;;;;;;;;2075882;28;20211;-55
2020/12/06 01:39:27;;;;;;;37.60;28.63;;;;;;;;;;2083894;28;20172;-55
2020/12/06 01:40:27;;;;;;;41.70;28.07;;;;;;;;;;2075951;28;20208;-55
2020/12/06 01:41:27;;;;;;;40.30;28.50;;;;;;;;;;2079256;28;20225;-57
2020/12/06 01:42:28;;;;;;;34.43;26.37;;;;;;;;;;2083422;28;20249;-57
2020/12/06 01:43:28;;;;;;;36.23;25.30;;;;;;;;;;2081013;28;20254;-55
2020/12/06 01:44:28;;;;;;;36.97;25.50;;;;;;;;;;2083493;28;20655;-54
2020/12/06 01:45:28;;;;;;;35.47;25.10;;;;;;;;;;2084213;28;20179;-52
2020/12/06 01:46:30;;;;;;;33.70;25.00;;;;;;;;;;2076342;28;20559;-56
2020/12/06 01:47:30;;;;;;;33.30;26.10;;;;;;;;;;2081315;28;20191;-57
2020/12/06 01:48:30;;;;;;;34.37;25.67;;;;;;;;;;2080466;28;20595;-55
2020/12/06 01:49:37;;;;;;;37.13;25.27;;;;;;;;;;2083733;28;20177;-53
2020/12/06 01:50:37;;;;;;;35.97;25.13;;;;;;;;;;2081850;28;20876;-53
2020/12/06 01:51:38;;;;;;;40.30;28.33;;;;;;;;;;2083840;28;20171;-53
2020/12/06 01:52:41;;;;;;;39.53;26.97;;;;;;;;;;2083772;28;20239;-52
2020/12/06 01:53:42;;;;;;;37.97;27.00;;;;;;;;;;2078485;28;20184;-54
2020/12/06 01:54:42;;;;;;;38.73;26.30;;;;;;;;;;2079542;28;20226;-53
2020/12/06 01:55:43;;;;;;;38.33;27.37;;;;;;;;;;2083204;28;20184;-53
2020/12/06 01:56:43;;;;;;;35.63;26.33;;;;;;;;;;2080679;28;20272;-55
2020/12/06 01:57:44;;;;;;;38.13;25.83;;;;;;;;;;2078571;28;20587;-53
2020/12/06 01:58:44;;;;;;;39.23;26.90;;;;;;;;;;2075195;28;20180;-55
2020/12/06 01:59:44;;;;;;;40.87;27.33;;;;;;;;;;2084159;28;20215;-52
2020/12/06 02:00:45;;;;;;;37.50;25.83;;;;;;;;;;2076313;28;20186;-55
2020/12/06 02:01:53;;;;;;;35.43;25.37;;;;;;;;;;2064967;28;20170;-56
2020/12/06 02:02:53;;;;;;;37.43;27.30;;;;;;;;;;2079553;28;20177;-56
2020/12/06 02:03:54;;;;;;;33.93;24.90;;;;;;;;;;2082760;28;20180;-53
2020/12/06 02:04:54;;;;;;;36.07;25.30;;;;;;;;;;2082186;28;20184;-56
2020/12/06 02:05:56;;;;;;;37.90;26.50;;;;;;;;;;2084051;28;20712;-55
2020/12/06 02:06:57;;;;;;;39.97;26.20;;;;;;;;;;2074848;28;20181;-55
2020/12/06 02:07:57;;;;;;;32.90;25.20;;;;;;;;;;2078334;28;20216;-54
2020/12/06 02:08:58;;;;;;;38.03;26.60;;;;;;;;;;2074938;28;20181;-55
2020/12/06 02:09:59;;;;;;;37.43;24.57;;;;;;;;;;2077372;28;20601;-53
2020/12/06 02:10:59;;;;;;;38.70;26.47;;;;;;;;;;2067843;28;20189;-53
2020/12/06 02:12:05;;;;;;;36.57;25.77;;;;;;;;;;2067687;28;20260;-57
2020/12/06 02:13:05;;;;;;;34.77;25.33;;;;;;;;;;2081914;28;20282;-55
2020/12/06 02:14:05;;;;;;;37.47;24.87;;;;;;;;;;2082781;28;20187;-55
2020/12/06 02:15:06;;;;;;;35.63;25.23;;;;;;;;;;2074910;28;20168;-57
2020/12/06 02:16:06;;;;;;;37.83;25.73;;;;;;;;;;2074365;28;20172;-64
2020/12/06 02:17:06;;;;;;;34.17;24.13;;;;;;;;;;2073935;28;20184;-54
2020/12/06 02:18:06;;;;;;;37.57;25.07;;;;;;;;;;2075099;28;20280;-51
2020/12/06 02:19:08;;;;;;;35.30;25.40;;;;;;;;;;2083156;28;20176;-51
2020/12/06 02:20:08;;;;;;;31.13;23.60;;;;;;;;;;2083272;28;20172;-56
2020/12/06 02:21:08;;;;;;;35.27;25.73;;;;;;;;;;2074812;28;20187;-58
2020/12/06 02:22:08;;;;;;;34.20;23.77;;;;;;;;;;2074369;28;20191;-58
2020/12/06 02:23:09;;;;;;;35.20;25.03;;;;;;;;;;2077624;28;20214;-58
2020/12/06 02:24:10;;;;;;;32.53;23.40;;;;;;;;;;2074916;28;20203;-56
2020/12/06 02:25:10;;;;;;;33.40;24.97;;;;;;;;;;2079842;28;20912;-57
2020/12/06 02:26:10;;;;;;;33.80;24.43;;;;;;;;;;2081268;28;20176;-58
2020/12/06 02:27:10;;;;;;;30.27;22.23;;;;;;;;;;2073721;28;20204;-57
2020/12/06 02:28:11;;;;;;;31.53;23.37;;;;;;;;;;2075354;28;20181;-60
2020/12/06 02:29:11;;;;;;;34.80;24.13;;;;;;;;;;2080737;28;20168;-58
2020/12/06 02:30:12;;;;;;;31.60;24.67;;;;;;;;;;2083289;28;20183;-56
2020/12/06 02:31:12;;;;;;;32.80;23.33;;;;;;;;;;2081624;28;20574;-56
2020/12/06 02:32:12;;;;;;;31.23;23.23;;;;;;;;;;2083509;28;20223;-56
2020/12/06 02:33:13;;;;;;;33.17;23.03;;;;;;;;;;2074846;28;20663;-55
2020/12/06 02:34:13;;;;;;;31.63;22.83;;;;;;;;;;2066155;28;20204;-55
2020/12/06 02:35:13;;;;;;;30.13;23.60;;;;;;;;;;2071612;28;20181;-56
2020/12/06 02:36:13;;;;;;;30.90;22.47;;;;;;;;;;2083606;28;20184;-56
2020/12/06 02:37:14;;;;;;;34.23;23.93;;;;;;;;;;2082751;28;20200;-57
2020/12/06 02:38:14;;;;;;;32.67;23.83;;;;;;;;;;2083425;28;20314;-56
2020/12/06 02:39:14;;;;;;;31.03;23.57;;;;;;;;;;2075494;28;20177;-57
2020/12/06 02:40:15;;;;;;;29.60;22.07;;;;;;;;;;2074800;28;20181;-53
2020/12/06 02:41:15;;;;;;;32.60;24.03;;;;;;;;;;2083855;28;20188;-55
2020/12/06 02:43:24;;;;;;;32.20;23.47;;;;;;;;;;2096681;23;20216;-61
2020/12/06 02:44:25;;;;;;;30.70;22.57;;;;;;;;;;2090395;28;20226;-61
2020/12/06 02:45:25;;;;;;;29.57;23.43;;;;;;;;;;2088413;28;20195;-60
2020/12/06 02:46:25;;;;;;;30.73;23.80;;;;;;;;;;2088076;28;20222;-61
2020/12/06 02:47:26;;;;;;;35.00;24.73;;;;;;;;;;2080978;28;20180;-61
2020/12/06 02:48:26;;;;;;;29.87;23.50;;;;;;;;;;2082257;28;20211;-61
2020/12/06 02:49:26;;;;;;;35.20;24.63;;;;;;;;;;2089493;28;20547;-61
2020/12/06 02:50:27;;;;;;;33.40;23.37;;;;;;;;;;2090994;28;20175;-61
2020/12/06 02:51:27;;;;;;;32.53;23.73;;;;;;;;;;2090379;28;20254;-60
2020/12/06 02:52:27;;;;;;;32.37;23.67;;;;;;;;;;2085866;28;20178;-61
2020/12/06 02:53:28;;;;;;;32.83;23.20;;;;;;;;;;2090442;28;20734;-62
2020/12/06 02:54:28;;;;;;;27.87;21.83;;;;;;;;;;2078765;28;20671;-60
2020/12/06 02:55:28;;;;;;;33.87;24.80;;;;;;;;;;2081587;28;20173;-62
2020/12/06 02:56:28;;;;;;;31.10;23.33;;;;;;;;;;2090275;28;20171;-60
2020/12/06 02:57:29;;;;;;;32.47;22.87;;;;;;;;;;2088670;28;20694;-61
2020/12/06 02:58:29;;;;;;;30.87;23.83;;;;;;;;;;2089143;28;20171;-61
2020/12/06 02:59:29;;;;;;;30.87;22.77;;;;;;;;;;2084141;28;20165;-62
2020/12/06 03:00:29;;;;;;;30.53;23.33;;;;;;;;;;2087479;28;20184;-60
2020/12/06 03:01:32;;;;;;;30.77;22.23;;;;;;;;;;2089013;28;20176;-61
2020/12/06 03:02:33;;;;;;;33.23;22.73;;;;;;;;;;2090544;28;20237;-61
2020/12/06 03:03:33;;;;;;;30.13;23.30;;;;;;;;;;2087757;28;20237;-61
2020/12/06 03:04:33;;;;;;;30.17;22.87;;;;;;;;;;2081868;28;20175;-61
2020/12/06 03:05:33;;;;;;;29.93;22.07;;;;;;;;;;2081949;28;20243;-61
2020/12/06 03:06:34;;;;;;;32.13;23.00;;;;;;;;;;2088329;28;20183;-61
2020/12/06 03:07:34;;;;;;;32.03;22.33;;;;;;;;;;2085998;28;20223;-61
2020/12/06 03:08:34;;;;;;;31.40;22.90;;;;;;;;;;2079689;28;20192;-61
2020/12/06 03:09:37;;;;;;;30.00;22.73;;;;;;;;;;2082037;28;20588;-61
2020/12/06 03:10:37;;;;;;;30.37;23.60;;;;;;;;;;2088213;28;20192;-61
2020/12/06 03:11:39;;;;;;;31.37;23.67;;;;;;;;;;2090720;28;20180;-60
2020/12/06 03:12:40;;;;;;;34.03;22.73;;;;;;;;;;2090183;28;20234;-60
2020/12/06 03:13:40;;;;;;;28.10;22.40;;;;;;;;;;2088481;28;20210;-61
2020/12/06 03:14:40;;;;;;;31.73;23.27;;;;;;;;;;2090688;28;20182;-61
2020/12/06 03:15:40;;;;;;;28.80;22.57;;;;;;;;;;2081068;28;20208;-59
2020/12/06 03:16:41;;;;;;;32.10;22.60;;;;;;;;;;2080689;28;20182;-58
2020/12/06 03:17:41;;;;;;;28.50;22.03;;;;;;;;;;2088581;28;20205;-61
2020/12/06 03:18:41;;;;;;;31.43;23.13;;;;;;;;;;2086803;28;20171;-61
2020/12/06 03:19:41;;;;;;;30.97;22.70;;;;;;;;;;2087865;28;20211;-61
2020/12/06 03:20:42;;;;;;;31.67;24.20;;;;;;;;;;2091021;28;20179;-61
2020/12/06 03:21:42;;;;;;;29.23;23.03;;;;;;;;;;2090832;28;20176;-61
2020/12/06 03:22:42;;;;;;;31.70;24.03;;;;;;;;;;2088531;28;20184;-61
2020/12/06 03:23:42;;;;;;;30.43;22.90;;;;;;;;;;2090366;28;20229;-61
2020/12/06 03:24:43;;;;;;;32.67;23.60;;;;;;;;;;2091069;28;20187;-61
2020/12/06 03:25:43;;;;;;;32.47;23.47;;;;;;;;;;2088237;28;20179;-59
2020/12/06 03:26:43;;;;;;;31.33;22.43;;;;;;;;;;2077993;28;20180;-59
2020/12/06 03:27:43;;;;;;;31.47;22.63;;;;;;;;;;2078346;28;20231;-61
2020/12/06 03:28:44;;;;;;;28.50;22.83;;;;;;;;;;2088426;28;20731;-61
2020/12/06 03:29:44;;;;;;;27.87;21.53;;;;;;;;;;2081342;28;20173;-61
2020/12/06 03:30:44;;;;;;;28.57;22.03;;;;;;;;;;2080936;28;20214;-61
2020/12/06 03:31:44;;;;;;;31.30;22.40;;;;;;;;;;2089640;28;20179;-60
2020/12/06 03:32:45;;;;;;;28.60;22.53;;;;;;;;;;2086456;28;20218;-60
2020/12/06 03:33:45;;;;;;;28.07;22.07;;;;;;;;;;2090193;28;20174;-61
2020/12/06 03:34:45;;;;;;;32.90;23.40;;;;;;;;;;2088323;28;20179;-60
2020/12/06 03:35:45;;;;;;;30.53;21.53;;;;;;;;;;2089356;28;20175;-59
2020/12/06 03:36:45;;;;;;;29.90;22.20;;;;;;;;;;2088016;28;20214;-61
2020/12/06 03:37:46;;;;;;;29.03;21.47;;;;;;;;;;2087693;28;20203;-61
2020/12/06 03:38:46;;;;;;;28.43;22.60;;;;;;;;;;2079155;28;20176;-61
2020/12/06 03:39:46;;;;;;;31.80;22.93;;;;;;;;;;2080539;28;20195;-61
2020/12/06 03:40:46;;;;;;;28.90;22.57;;;;;;;;;;2085263;28;20195;-62
2020/12/06 03:41:47;;;;;;;28.73;21.53;;;;;;;;;;2088103;28;20290;-60
2020/12/06 03:42:49;;;;;;;27.27;21.97;;;;;;;;;;2090205;28;20211;-60
2020/12/06 03:43:49;;;;;;;29.27;21.10;;;;;;;;;;2090101;28;20274;-61
2020/12/06 03:44:50;;;;;;;29.03;21.20;;;;;;;;;;2089271;28;20182;-59
2020/12/06 03:45:50;;;;;;;28.43;22.33;;;;;;;;;;2086054;28;20171;-60
2020/12/06 03:46:50;;;;;;;28.90;21.57;;;;;;;;;;2090208;28;20583;-59
2020/12/06 03:47:54;;;;;;;29.67;22.20;;;;;;;;;;2080656;28;20764;-60
2020/12/06 03:48:54;;;;;;;31.37;23.03;;;;;;;;;;2068887;28;20208;-59
2020/12/06 03:49:55;;;;;;;28.87;22.03;;;;;;;;;;2076065;28;20691;-60
2020/12/06 03:50:55;;;;;;;28.97;22.40;;;;;;;;;;2088638;28;20180;-59
2020/12/06 03:51:55;;;;;;;27.83;21.57;;;;;;;;;;2087399;28;20528;-60
2020/12/06 03:52:55;;;;;;;30.43;22.07;;;;;;;;;;2088314;28;20199;-57
2020/12/06 03:53:56;;;;;;;27.33;22.17;;;;;;;;;;2087735;28;20187;-58
2020/12/06 03:54:56;;;;;;;28.50;22.17;;;;;;;;;;2084561;28;20230;-57
2020/12/06 03:55:56;;;;;;;33.73;24.00;;;;;;;;;;2069151;28;20220;-57
2020/12/06 03:56:56;;;;;;;30.73;22.90;;;;;;;;;;2073211;28;20181;-59
2020/12/06 03:57:57;;;;;;;32.47;23.63;;;;;;;;;;2085368;28;20334;-59
2020/12/06 03:58:57;;;;;;;30.57;22.60;;;;;;;;;;2083545;28;20237;-61
2020/12/06 03:59:57;;;;;;;31.37;23.37;;;;;;;;;;2078148;28;20182;-55
2020/12/06 04:00:57;;;;;;;26.33;22.43;;;;;;;;;;2081138;28;20648;-59
2020/12/06 04:01:58;;;;;;;29.40;22.10;;;;;;;;;;2079108;28;20180;-59
2020/12/06 04:02:58;;;;;;;29.30;22.27;;;;;;;;;;2081138;28;20231;-58
2020/12/06 04:03:58;;;;;;;32.83;24.07;;;;;;;;;;2080928;28;20184;-58
2020/12/06 04:04:58;;;;;;;29.10;22.70;;;;;;;;;;2078755;28;20176;-61
2020/12/06 04:05:58;;;;;;;30.67;22.83;;;;;;;;;;2080150;28;20181;-59
2020/12/06 04:06:59;;;;;;;28.47;22.53;;;;;;;;;;2080771;28;20218;-61
2020/12/06 04:07:59;;;;;;;28.37;22.27;;;;;;;;;;2085931;28;20647;-56
2020/12/06 04:08:59;;;;;;;31.20;22.03;;;;;;;;;;2081142;28;20262;-60
2020/12/06 04:10:00;;;;;;;29.37;22.93;;;;;;;;;;2080936;28;20183;-58
2020/12/06 04:11:00;;;;;;;29.63;22.60;;;;;;;;;;2088413;28;20191;-61
2020/12/06 04:12:01;;;;;;;28.60;22.30;;;;;;;;;;2085295;28;20202;-60
2020/12/06 04:13:01;;;;;;;30.70;22.27;;;;;;;;;;2086940;28;20230;-61
2020/12/06 04:14:01;;;;;;;27.23;20.80;;;;;;;;;;2087026;28;20172;-61
2020/12/06 04:15:02;;;;;;;28.03;21.17;;;;;;;;;;2089274;28;20243;-62
2020/12/06 04:16:02;;;;;;;27.30;21.10;;;;;;;;;;2088177;28;20259;-62
2020/12/06 04:17:03;;;;;;;26.63;21.10;;;;;;;;;;2079564;28;20246;-61
2020/12/06 04:18:03;;;;;;;26.97;20.73;;;;;;;;;;2080981;28;20208;-61
2020/12/06 04:19:03;;;;;;;29.37;21.27;;;;;;;;;;2087468;28;20259;-61
2020/12/06 04:20:07;;;;;;;26.50;20.43;;;;;;;;;;2089747;28;20225;-61
2020/12/06 04:21:11;;;;;;;29.67;22.83;;;;;;;;;;2089930;28;20202;-61
2020/12/06 04:22:11;;;;;;;32.73;22.13;;;;;;;;;;2089137;28;20167;-61
2020/12/06 04:23:12;;;;;;;28.73;22.37;;;;;;;;;;2088235;28;20199;-62
2020/12/06 04:24:12;;;;;;;27.70;23.07;;;;;;;;;;2090209;28;20190;-60
2020/12/06 04:25:12;;;;;;;30.33;22.33;;;;;;;;;;2090250;28;20172;-61
2020/12/06 04:26:12;;;;;;;28.97;22.40;;;;;;;;;;2086818;28;20176;-62
2020/12/06 04:27:13;;;;;;;29.23;23.37;;;;;;;;;;2090092;28;20259;-61
2020/12/06 04:28:13;;;;;;;31.97;23.07;;;;;;;;;;2089396;28;20171;-58
2020/12/06 04:29:13;;;;;;;28.03;22.50;;;;;;;;;;2088562;28;20203;-62
2020/12/06 04:30:13;;;;;;;29.23;22.57;;;;;;;;;;2089579;28;20204;-61
2020/12/06 04:31:14;;;;;;;30.20;22.50;;;;;;;;;;2076997;28;20192;-61
2020/12/06 04:32:14;;;;;;;32.43;22.13;;;;;;;;;;2077681;28;20168;-60
2020/12/06 04:33:14;;;;;;;29.07;22.43;;;;;;;;;;2080774;28;20204;-61
2020/12/06 04:34:15;;;;;;;29.93;23.87;;;;;;;;;;2069197;28;20188;-61
2020/12/06 04:35:15;;;;;;;29.57;22.33;;;;;;;;;;2075545;28;20180;-60
2020/12/06 04:36:15;;;;;;;30.73;21.27;;;;;;;;;;2080832;28;20230;-61
2020/12/06 04:37:15;;;;;;;30.40;23.33;;;;;;;;;;2079606;28;20180;-60
2020/12/06 04:38:16;;;;;;;32.10;22.67;;;;;;;;;;2081294;28;20256;-60
2020/12/06 04:39:16;;;;;;;29.20;21.60;;;;;;;;;;2080903;28;20267;-60
2020/12/06 04:40:17;;;;;;;29.80;22.00;;;;;;;;;;2075992;28;20189;-61
2020/12/06 04:41:17;;;;;;;26.07;21.27;;;;;;;;;;2080768;28;20230;-61
2020/12/06 04:42:17;;;;;;;29.43;21.30;;;;;;;;;;2089831;28;20191;-60
2020/12/06 04:43:18;;;;;;;27.00;22.53;;;;;;;;;;2079214;28;20566;-60
2020/12/06 04:44:18;;;;;;;29.13;21.17;;;;;;;;;;2070066;28;20177;-61
2020/12/06 04:45:18;;;;;;;30.90;21.73;;;;;;;;;;2078498;28;20733;-61
2020/12/06 04:46:19;;;;;;;28.80;21.17;;;;;;;;;;2087570;28;20184;-61
2020/12/06 04:47:45;;;;;;;29.00;23.50;;;;;;;;;;2088795;28;20176;-60
2020/12/06 04:48:58;;;;;;;31.53;23.27;;;;;;;;;;2085200;28;20191;-57
2020/12/06 04:50:02;;;;;;;31.90;22.67;;;;;;;;;;2086441;28;20198;-60
2020/12/06 04:51:04;;;;;;;28.07;22.00;;;;;;;;;;2088997;28;20187;-62
2020/12/06 04:52:05;;;;;;;31.60;22.93;;;;;;;;;;2082115;28;20180;-59
2020/12/06 04:53:06;;;;;;;29.63;22.63;;;;;;;;;;2085037;28;20249;-59
2020/12/06 04:54:07;;;;;;;30.07;22.53;;;;;;;;;;2087349;28;20225;-57
2020/12/06 04:55:08;;;;;;;29.80;22.37;;;;;;;;;;2087742;28;20692;-61
2020/12/06 04:56:11;;;;;;;33.07;23.23;;;;;;;;;;2087256;28;20176;-60
2020/12/06 04:57:11;;;;;;;30.97;24.17;;;;;;;;;;2088411;28;20605;-60
2020/12/06 04:58:15;;;;;;;28.97;22.30;;;;;;;;;;2088394;28;20221;-60
2020/12/06 04:59:16;;;;;;;31.93;22.60;;;;;;;;;;2080347;28;20648;-60
2020/12/06 05:00:17;;;;;;;30.90;23.23;;;;;;;;;;2080023;28;20180;-61
2020/12/06 05:01:19;;;;;;;27.57;21.70;;;;;;;;;;2087119;28;20266;-60
2020/12/06 05:02:20;;;;;;;28.13;21.43;;;;;;;;;;2088286;28;20178;-60
2020/12/06 05:03:25;;;;;;;30.17;21.83;;;;;;;;;;2072278;28;20215;-61
2020/12/06 05:04:25;;;;;;;27.67;21.73;;;;;;;;;;2072798;28;20192;-57
2020/12/06 05:05:30;;;;;;;30.10;22.77;;;;;;;;;;2089224;28;20172;-58
2020/12/06 05:06:31;;;;;;;30.00;23.23;;;;;;;;;;2089509;28;20194;-60
2020/12/06 05:07:32;;;;;;;29.07;22.57;;;;;;;;;;2083773;28;20176;-60
2020/12/06 05:08:34;;;;;;;30.33;22.47;;;;;;;;;;2074866;28;20181;-60
2020/12/06 05:09:35;;;;;;;27.67;22.27;;;;;;;;;;2072730;28;20570;-60
2020/12/06 05:10:36;;;;;;;30.97;23.67;;;;;;;;;;2072336;28;20172;-61
2020/12/06 05:11:37;;;;;;;27.40;21.30;;;;;;;;;;2084301;28;20184;-61
2020/12/06 05:12:37;;;;;;;30.77;22.60;;;;;;;;;;2087518;28;20552;-61
2020/12/06 05:13:37;;;;;;;32.23;23.13;;;;;;;;;;2086499;28;20182;-60
2020/12/06 05:14:38;;;;;;;27.27;20.80;;;;;;;;;;2088095;28;20188;-63
2020/12/06 05:15:38;;;;;;;29.53;22.33;;;;;;;;;;2088721;28;20203;-59
2020/12/06 05:16:39;;;;;;;29.13;21.03;;;;;;;;;;2087673;28;20180;-61
2020/12/06 05:17:39;;;;;;;25.87;21.20;;;;;;;;;;2089283;28;20207;-60
2020/12/06 05:18:40;;;;;;;30.20;22.53;;;;;;;;;;2088561;28;20295;-60
2020/12/06 05:19:40;;;;;;;31.00;22.50;;;;;;;;;;2087591;28;20221;-57
2020/12/06 05:20:40;;;;;;;30.40;22.63;;;;;;;;;;2089241;28;20229;-59
2020/12/06 05:21:41;;;;;;;30.27;23.87;;;;;;;;;;2087806;28;20172;-60
2020/12/06 05:22:45;;;;;;;29.20;23.27;;;;;;;;;;2085384;28;20202;-58
2020/12/06 05:23:45;;;;;;;30.10;23.23;;;;;;;;;;2088724;28;20172;-60
2020/12/06 05:24:45;;;;;;;28.67;22.17;;;;;;;;;;2089513;28;20176;-58
2020/12/06 05:25:46;;;;;;;33.10;24.03;;;;;;;;;;2087947;28;20543;-60
2020/12/06 05:26:46;;;;;;;29.83;22.50;;;;;;;;;;2086533;28;20188;-61
2020/12/06 05:27:47;;;;;;;31.30;23.70;;;;;;;;;;2088613;28;20180;-61
2020/12/06 05:28:47;;;;;;;29.33;22.53;;;;;;;;;;2088615;28;20179;-59
2020/12/06 05:29:47;;;;;;;30.70;22.57;;;;;;;;;;2082149;28;20192;-58
2020/12/06 05:30:48;;;;;;;28.67;22.83;;;;;;;;;;2088472;28;20241;-60
2020/12/06 05:31:48;;;;;;;28.33;22.43;;;;;;;;;;2087972;28;20196;-60
2020/12/06 05:32:48;;;;;;;28.27;22.37;;;;;;;;;;2080632;28;20588;-59
2020/12/06 05:33:49;;;;;;;27.63;21.63;;;;;;;;;;2079935;28;20172;-59
2020/12/06 05:34:49;;;;;;;31.53;23.93;;;;;;;;;;2077367;28;20223;-59
2020/12/06 05:35:49;;;;;;;28.43;22.40;;;;;;;;;;2071657;28;20256;-62
2020/12/06 05:36:50;;;;;;;28.90;21.40;;;;;;;;;;2080275;28;20188;-58
2020/12/06 05:37:50;;;;;;;28.40;22.83;;;;;;;;;;2087656;28;20211;-60
2020/12/06 05:38:50;;;;;;;31.30;22.80;;;;;;;;;;2087781;28;20491;-63
2020/12/06 05:40:10;;;;;;;31.63;24.07;;;;;;;;;;2084725;28;20207;-62
2020/12/06 05:41:10;;;;;;;30.10;22.80;;;;;;;;;;2075010;28;20294;-61
2020/12/06 05:42:10;;;;;;;31.27;23.60;;;;;;;;;;2080030;28;20283;-63
2020/12/06 05:43:11;;;;;;;31.13;24.73;;;;;;;;;;2084887;28;20207;-59
2020/12/06 05:44:11;;;;;;;32.17;22.90;;;;;;;;;;2085041;28;20687;-59
2020/12/06 05:45:12;;;;;;;29.83;23.63;;;;;;;;;;2084921;28;20207;-61
2020/12/06 05:46:13;;;;;;;30.63;22.97;;;;;;;;;;2089064;28;20250;-61
2020/12/06 05:47:14;;;;;;;30.73;23.67;;;;;;;;;;2087690;28;20176;-62
2020/12/06 05:48:14;;;;;;;34.20;24.83;;;;;;;;;;2088153;28;20262;-62
2020/12/06 05:49:17;;;;;;;31.20;23.50;;;;;;;;;;2088658;28;20171;-61
2020/12/06 05:50:18;;;;;;;30.20;23.00;;;;;;;;;;2078955;28;20504;-62
2020/12/06 05:51:18;;;;;;;31.33;24.03;;;;;;;;;;2076229;28;20193;-60
2020/12/06 05:52:19;;;;;;;29.73;24.47;;;;;;;;;;2087746;28;20164;-61
2020/12/06 05:53:19;;;;;;;29.83;22.17;;;;;;;;;;2087498;28;20195;-61
2020/12/06 05:54:23;;;;;;;31.67;23.17;;;;;;;;;;2090558;28;20175;-61